Time;durP1;ratioP1;P1;durP2;ratioP2;P2;SDS_P1;SDS_P2;PMS_P1;PMS_P2;Temp;Humidity;BMP_temperature;BMP_pressure;BME280_temperature;BME280_humidity;BME280_pressure;Samples;Min_cycle;Max_cycle;Signal;HPM_P1;HPM_P2
2022/06/12 00:00:43;;;;;;;6.25;5.63;;;19.20;99.90;;;;;;5010060;28;20038;-43
2022/06/12 00:03:12;;;;;;;6.88;5.95;;;19.10;99.90;;;;;;5017918;28;20395;-43
2022/06/12 00:05:40;;;;;;;10.15;6.22;;;19.00;99.90;;;;;;5004980;28;20030;-44
2022/06/12 00:08:07;;;;;;;9.85;6.25;;;19.00;99.90;;;;;;4996802;28;20030;-43
2022/06/12 00:10:35;;;;;;;11.95;6.38;;;19.00;99.90;;;;;;5006847;28;20121;-44
2022/06/12 00:13:01;;;;;;;11.02;6.25;;;19.00;99.90;;;;;;5003941;28;20089;-43
2022/06/12 00:15:30;;;;;;;7.47;6.75;;;19.00;99.90;;;;;;5006213;28;20056;-43
2022/06/12 00:17:56;;;;;;;7.22;6.53;;;19.00;99.90;;;;;;5001129;28;20030;-44
2022/06/12 00:20:23;;;;;;;7.82;6.85;;;18.90;99.90;;;;;;5007856;28;20030;-43
2022/06/12 00:22:50;;;;;;;9.38;6.15;;;18.90;99.90;;;;;;4999803;28;20042;-43
2022/06/12 00:25:18;;;;;;;9.48;7.53;;;18.80;99.90;;;;;;4999723;28;20038;-44
2022/06/12 00:27:44;;;;;;;11.35;9.60;;;18.80;99.90;;;;;;5009714;28;20034;-44
2022/06/12 00:30:12;;;;;;;14.57;9.65;;;;;;;;;;5007085;28;20419;-43
2022/06/12 00:32:39;;;;;;;8.85;6.53;;;;;;;;;;5003222;28;20129;-44
2022/06/12 00:35:07;;;;;;;8.13;6.00;;;18.80;99.90;;;;;;5005836;28;20038;-43
2022/06/12 00:37:35;;;;;;;9.38;5.82;;;18.80;99.90;;;;;;4998272;28;20037;-43
2022/06/12 00:40:03;;;;;;;8.82;5.45;;;18.70;99.90;;;;;;5001480;28;20125;-43
2022/06/12 00:42:28;;;;;;;10.25;5.65;;;18.70;99.90;;;;;;5016891;28;20050;-43
2022/06/12 00:44:56;;;;;;;11.70;6.10;;;18.70;99.90;;;;;;5016785;28;20397;-44
2022/06/12 00:47:23;;;;;;;7.38;5.75;;;18.60;99.90;;;;;;5013787;28;20045;-43
2022/06/12 00:49:51;;;;;;;8.30;5.57;;;18.60;99.90;;;;;;4971035;28;20500;-43
2022/06/12 00:52:33;;;;;;;9.80;5.82;;;;;;;;;;5007116;28;20034;-43
2022/06/12 00:55:24;;;;;;;7.90;5.30;;;18.70;99.90;;;;;;4997504;28;20489;-44
2022/06/12 00:57:53;;;;;;;6.70;5.13;;;18.60;99.90;;;;;;5015380;28;20037;-43
2022/06/12 01:00:19;;;;;;;9.88;5.55;;;18.50;99.90;;;;;;5016823;28;20029;-44
2022/06/12 01:02:45;;;;;;;10.15;5.43;;;18.50;99.90;;;;;;5011541;28;20078;-43
2022/06/12 01:08:03;;;;;;;8.57;4.75;;;18.50;99.90;;;;;;5015535;28;20052;-43
2022/06/12 01:10:30;;;;;;;9.05;5.30;;;18.40;99.90;;;;;;5011930;28;20087;-43
2022/06/12 01:12:59;;;;;;;10.38;5.20;;;18.40;99.90;;;;;;5005402;28;20429;-43
2022/06/12 01:15:44;;;;;;;8.73;5.32;;;18.30;99.90;;;;;;5003343;28;20031;-43
2022/06/12 01:18:14;;;;;;;7.72;5.32;;;18.30;99.90;;;;;;5001564;28;20054;-43
2022/06/12 01:20:59;;;;;;;7.88;5.25;;;18.20;99.90;;;;;;4998995;28;20038;-43
2022/06/12 01:23:28;;;;;;;6.82;5.30;;;18.20;99.90;;;;;;4995644;28;20128;-44
2022/06/12 01:26:17;;;;;;;9.55;5.75;;;18.20;99.90;;;;;;4995827;28;20188;-42
2022/06/12 01:28:55;;;;;;;8.77;5.15;;;18.20;99.90;;;;;;4995087;28;20104;-43
2022/06/12 01:31:44;;;;;;;7.28;5.03;;;18.20;99.90;;;;;;4995507;28;20069;-43
2022/06/12 01:34:28;;;;;;;9.80;5.57;;;18.30;99.90;;;;;;4995612;28;20050;-43
2022/06/12 01:37:08;;;;;;;8.88;5.05;;;18.30;99.90;;;;;;5009118;28;20030;-43
2022/06/12 01:39:49;;;;;;;6.45;4.75;;;18.30;99.90;;;;;;4995241;28;20029;-43
2022/06/12 01:42:34;;;;;;;6.72;4.90;;;18.30;99.90;;;;;;4995195;28;20034;-43
2022/06/12 01:45:13;;;;;;;8.13;5.10;;;18.30;99.90;;;;;;4995297;28;20026;-43
2022/06/12 01:47:58;;;;;;;6.35;4.88;;;18.30;99.90;;;;;;4995043;28;20033;-44
2022/06/12 01:50:42;;;;;;;6.45;5.13;;;18.20;99.90;;;;;;4995427;28;20033;-43
2022/06/12 01:53:45;;;;;;;7.78;5.25;;;18.20;99.90;;;;;;4995266;28;20029;-43
2022/06/12 01:56:23;;;;;;;9.82;5.47;;;18.20;99.90;;;;;;4995070;28;20034;-43
2022/06/12 01:59:08;;;;;;;6.75;4.93;;;18.20;99.90;;;;;;4995440;28;20030;-43
2022/06/12 02:02:01;;;;;;;8.80;5.15;;;18.20;99.90;;;;;;5009302;28;20093;-44
2022/06/12 02:04:38;;;;;;;9.73;4.78;;;18.20;99.90;;;;;;4995085;28;20104;-43
2022/06/12 02:07:09;;;;;;;7.13;5.10;;;18.20;99.90;;;;;;4994789;28;20493;-43
2022/06/12 02:09:44;;;;;;;9.70;5.80;;;18.00;99.90;;;;;;4994673;28;20053;-43
2022/06/12 02:15:11;;;;;;;8.23;5.40;;;18.10;99.90;;;;;;4995332;28;20041;-43
2022/06/12 02:18:10;;;;;;;7.18;5.55;;;18.10;99.90;;;;;;4994663;28;20425;-43
2022/06/12 02:20:41;;;;;;;6.95;5.57;;;18.00;99.90;;;;;;4994304;28;20034;-43
2022/06/12 02:23:16;;;;;;;12.00;6.03;;;18.00;99.90;;;;;;4994398;28;20593;-43
2022/06/12 02:25:45;;;;;;;8.02;5.00;;;18.00;99.90;;;;;;4994549;28;20026;-44
2022/06/12 02:28:18;;;;;;;9.57;5.75;;;18.00;99.90;;;;;;4994357;28;20054;-43
2022/06/12 02:30:49;;;;;;;7.15;5.00;;;18.00;99.90;;;;;;4994477;28;20363;-43
2022/06/12 02:33:23;;;;;;;8.48;5.60;;;18.00;99.90;;;;;;4994333;28;20065;-43
2022/06/12 02:36:02;;;;;;;7.75;4.70;;;17.90;99.90;;;;;;4960024;28;20058;-43
2022/06/12 02:38:38;;;;;;;6.10;4.55;;;17.90;99.90;;;;;;4994210;28;20121;-44
2022/06/12 02:41:21;;;;;;;7.88;4.88;;;17.90;99.90;;;;;;4994812;28;20109;-43
2022/06/12 02:43:49;;;;;;;6.82;4.80;;;17.90;99.90;;;;;;4994007;28;20486;-43
2022/06/12 02:46:17;;;;;;;6.85;5.40;;;17.90;99.90;;;;;;4994238;28;20077;-43
2022/06/12 02:48:43;;;;;;;8.85;4.88;;;17.90;99.90;;;;;;4993972;28;20133;-42
2022/06/12 02:51:19;;;;;;;8.40;5.47;;;17.90;99.90;;;;;;4994145;28;20026;-44
2022/06/12 02:53:46;;;;;;;6.85;4.93;;;17.90;99.90;;;;;;4993950;28;20493;-43
2022/06/12 02:56:39;;;;;;;6.43;4.93;;;17.80;99.90;;;;;;4994051;28;20034;-43
2022/06/12 02:59:17;;;;;;;9.35;4.38;;;17.80;99.90;;;;;;4994027;28;20025;-43
2022/06/12 03:02:05;;;;;;;6.75;4.80;;;17.80;99.90;;;;;;4994067;28;20022;-43
2022/06/12 03:04:45;;;;;;;9.27;5.10;;;17.80;99.90;;;;;;4992062;28;20041;-43
2022/06/12 03:07:12;;;;;;;6.05;4.70;;;17.80;99.90;;;;;;4994252;28;20386;-43
2022/06/12 03:09:38;;;;;;;8.05;4.68;;;17.70;99.90;;;;;;4993831;28;20069;-43
2022/06/12 03:12:06;;;;;;;8.00;4.95;;;17.70;99.90;;;;;;4993935;28;20030;-43
2022/06/12 03:14:32;;;;;;;7.40;5.35;;;17.60;99.90;;;;;;5008493;28;20038;-43
2022/06/12 03:16:58;;;;;;;8.57;4.55;;;17.70;99.90;;;;;;4994300;28;20066;-43
2022/06/12 03:19:42;;;;;;;7.38;4.25;;;17.80;99.90;;;;;;4994080;28;20052;-43
2022/06/12 03:22:16;;;;;;;8.82;4.45;;;17.70;99.90;;;;;;4993856;28;20057;-43
2022/06/12 03:24:52;;;;;;;7.57;4.72;;;17.60;99.90;;;;;;4993773;28;20038;-43
2022/06/12 03:27:39;;;;;;;7.38;4.53;;;17.70;99.90;;;;;;4994037;28;20092;-43
2022/06/12 03:30:23;;;;;;;6.85;4.43;;;17.70;99.90;;;;;;4993875;28;20030;-43
2022/06/12 03:33:16;;;;;;;5.05;4.15;;;17.70;99.90;;;;;;4993535;28;20096;-43
2022/06/12 03:36:12;;;;;;;7.78;4.65;;;17.70;99.90;;;;;;4994092;28;20081;-43
2022/06/12 03:39:05;;;;;;;7.78;4.28;;;17.80;99.90;;;;;;4993266;28;20097;-43
2022/06/12 03:42:00;;;;;;;4.50;4.07;;;17.80;99.90;;;;;;4993621;28;20064;-43
2022/06/12 03:44:48;;;;;;;7.72;4.47;;;17.80;99.90;;;;;;4972203;28;20522;-43
2022/06/12 03:47:29;;;;;;;6.35;4.43;;;17.70;99.90;;;;;;4972083;28;20037;-43
2022/06/12 03:50:19;;;;;;;8.13;3.88;;;17.70;99.90;;;;;;4971954;28;20058;-43
2022/06/12 03:53:02;;;;;;;7.50;4.25;;;17.70;99.90;;;;;;4971922;28;20386;-43
2022/06/12 03:58:30;;;;;;;8.45;4.63;;;17.80;99.90;;;;;;4972382;28;20129;-43
2022/06/12 04:00:58;;;;;;;5.85;4.20;;;17.80;99.90;;;;;;4975407;28;20035;-43
2022/06/12 04:03:50;;;;;;;9.20;5.18;;;17.90;99.90;;;;;;4975565;28;20066;-43
2022/06/12 04:06:19;;;;;;;6.65;3.60;;;17.90;99.90;;;;;;4973890;28;20050;-43
2022/06/12 04:08:53;;;;;;;6.90;4.10;;;17.90;99.90;;;;;;4975358;28;20046;-44
2022/06/12 04:11:21;;;;;;;5.18;3.88;;;17.90;99.90;;;;;;4975447;28;20039;-43
2022/06/12 04:13:49;;;;;;;9.90;4.47;;;17.90;99.90;;;;;;4975298;28;20039;-43
2022/06/12 04:16:35;;;;;;;8.52;4.13;;;17.90;99.90;;;;;;4975377;28;20126;-43
2022/06/12 04:19:04;;;;;;;10.38;4.05;;;18.00;99.90;;;;;;4943125;28;20121;-43
2022/06/12 04:21:42;;;;;;;6.95;4.28;;;18.10;99.90;;;;;;4987675;28;20052;-43
2022/06/12 04:24:19;;;;;;;5.35;4.00;;;18.10;99.90;;;;;;4996907;28;20049;-43
2022/06/12 04:26:59;;;;;;;5.45;3.75;;;18.20;99.90;;;;;;4996519;28;20542;-43
2022/06/12 04:29:31;;;;;;;10.30;5.22;;;18.20;99.90;;;;;;4996962;28;20038;-44
2022/06/12 04:32:00;;;;;;;8.98;4.80;;;18.30;99.90;;;;;;4994179;28;20043;-43
2022/06/12 04:34:32;;;;;;;7.55;4.30;;;18.30;99.90;;;;;;4989849;28;20046;-43
2022/06/12 04:37:00;;;;;;;;;;;18.40;99.90;;;;;;4972542;28;20074;-43
2022/06/12 04:39:31;;;;;;;5.97;4.47;;;18.50;99.90;;;;;;4958830;28;19917;-43
2022/06/12 04:41:58;;;;;;;7.35;4.15;;;18.50;99.90;;;;;;4974841;28;20042;-43
2022/06/12 04:44:24;;;;;;;6.50;4.40;;;18.60;99.90;;;;;;4974820;28;20134;-43
2022/06/12 04:46:53;;;;;;;5.68;4.00;;;18.70;99.90;;;;;;4974699;28;20038;-43
2022/06/12 04:49:23;;;;;;;4.80;4.15;;;18.70;99.90;;;;;;4974870;28;20130;-43
2022/06/12 04:51:50;;;;;;;5.07;3.88;;;18.80;99.90;;;;;;4974795;28;20045;-43
2022/06/12 04:54:17;;;;;;;6.22;4.20;;;18.90;99.90;;;;;;4974751;28;20058;-43
2022/06/12 04:56:44;;;;;;;5.78;3.63;;;19.00;99.90;;;;;;4974690;28;20093;-43
2022/06/12 04:59:13;;;;;;;6.35;3.80;;;19.10;99.90;;;;;;4974508;28;20487;-43
2022/06/12 05:01:39;;;;;;;4.28;3.88;;;19.10;99.90;;;;;;4974524;28;20552;-43
2022/06/12 05:04:06;;;;;;;6.00;4.25;;;19.20;99.90;;;;;;4990531;28;20491;-43
2022/06/12 05:06:33;;;;;;;9.40;3.97;;;19.20;99.90;;;;;;4990997;28;20122;-43
2022/06/12 05:09:00;;;;;;;5.57;3.90;;;19.20;99.90;;;;;;4974201;28;20126;-44
2022/06/12 05:11:26;;;;;;;4.82;3.55;;;19.30;99.90;;;;;;4973250;28;20059;-42
2022/06/12 05:13:52;;;;;;;5.60;3.92;;;19.30;99.90;;;;;;4974228;28;20085;-43
2022/06/12 05:16:32;;;;;;;7.50;4.22;;;19.40;99.90;;;;;;4974249;28;20502;-43
2022/06/12 05:18:58;;;;;;;6.50;4.30;;;19.40;99.90;;;;;;4974117;28;20054;-43
2022/06/12 05:21:25;;;;;;;4.95;4.07;;;19.60;99.90;;;;;;4974219;28;20074;-43
2022/06/12 05:23:51;;;;;;;5.72;3.90;;;19.60;99.90;;;;;;4974153;28;20137;-43
2022/06/12 05:26:18;;;;;;;6.70;3.85;;;19.70;99.90;;;;;;4974012;28;20092;-43
2022/06/12 05:28:44;;;;;;;5.68;3.80;;;19.70;99.90;;;;;;4975174;28;20039;-43
2022/06/12 05:31:10;;;;;;;7.85;3.75;;;19.80;99.90;;;;;;4992036;28;20096;-43
2022/06/12 05:33:36;;;;;;;5.53;3.90;;;19.90;99.90;;;;;;4992675;28;20125;-43
2022/06/12 05:36:03;;;;;;;5.22;3.83;;;19.90;99.90;;;;;;4976509;28;20129;-42
2022/06/12 05:38:29;;;;;;;5.57;4.18;;;20.00;99.90;;;;;;4960941;28;20048;-43
2022/06/12 05:40:55;;;;;;;5.10;4.53;;;20.10;99.90;;;;;;4995070;28;20117;-43
2022/06/12 05:43:21;;;;;;;4.88;3.55;;;20.20;99.90;;;;;;4995306;28;20118;-43
2022/06/12 05:45:47;;;;;;;6.38;4.10;;;20.20;99.90;;;;;;4995542;28;20030;-43
2022/06/12 05:48:18;;;;;;;4.30;3.90;;;20.30;99.90;;;;;;4995106;28;20489;-43
2022/06/12 05:50:55;;;;;;;4.23;3.70;;;20.40;99.90;;;;;;4995167;28;20038;-43
2022/06/12 05:53:24;;;;;;;8.48;3.80;;;20.50;99.90;;;;;;4995121;28;20137;-43
2022/06/12 05:55:52;;;;;;;8.82;4.43;;;20.60;99.90;;;;;;4994968;28;20487;-43
2022/06/12 05:58:20;;;;;;;6.07;3.80;;;20.70;99.90;;;;;;4994936;28;20042;-43
2022/06/12 06:00:46;;;;;;;8.35;4.53;;;20.70;99.90;;;;;;4995152;28;20431;-43
2022/06/12 06:03:13;;;;;;;5.95;4.43;;;20.70;99.90;;;;;;4992535;28;20490;-43
2022/06/12 06:05:40;;;;;;;7.40;4.03;;;20.90;99.90;;;;;;4992834;28;20046;-43
2022/06/12 06:08:08;;;;;;;9.80;4.38;;;21.00;99.90;;;;;;4992713;28;20038;-43
2022/06/12 06:10:34;;;;;;;6.68;4.25;;;21.00;99.90;;;;;;4992695;28;20034;-43
2022/06/12 06:13:00;;;;;;;4.85;3.60;;;21.20;99.90;;;;;;4996788;28;20553;-43
2022/06/12 06:15:25;;;;;;;6.40;3.88;;;21.10;99.90;;;;;;5011627;28;20157;-43
2022/06/12 06:17:52;;;;;;;6.00;3.75;;;21.30;99.90;;;;;;4979795;28;20517;-43
2022/06/12 06:20:23;;;;;;;8.07;3.85;;;21.30;99.90;;;;;;5012128;28;20033;-43
2022/06/12 06:22:50;;;;;;;4.18;3.78;;;21.50;99.90;;;;;;4987132;28;20450;-43
2022/06/12 06:25:16;;;;;;;6.55;4.18;;;21.50;99.90;;;;;;4973420;28;20540;-43
2022/06/12 06:27:42;;;;;;;5.57;3.50;;;21.50;99.90;;;;;;4989480;28;20074;-42
2022/06/12 06:30:09;;;;;;;6.93;4.45;;;21.50;99.90;;;;;;4972984;28;20031;-43
2022/06/12 06:32:35;;;;;;;3.88;3.17;;;21.80;99.90;;;;;;4978004;28;20073;-43
2022/06/12 06:35:04;;;;;;;4.75;3.60;;;21.70;99.90;;;;;;4975190;28;20038;-43
2022/06/12 06:37:31;;;;;;;5.97;3.70;;;21.90;99.90;;;;;;4997046;28;20026;-43
2022/06/12 06:39:57;;;;;;;5.45;4.40;;;21.90;99.90;;;;;;5009742;28;20433;-44
2022/06/12 06:42:23;;;;;;;5.53;3.95;;;22.10;99.90;;;;;;5008557;28;20042;-43
2022/06/12 06:47:35;;;;;;;5.25;3.83;;;22.40;99.90;;;;;;5010626;28;20065;-44
2022/06/12 06:50:06;;;;;;;7.32;3.80;;;22.50;99.90;;;;;;5014095;28;20042;-43
2022/06/12 06:52:32;;;;;;;5.10;3.60;;;22.60;99.90;;;;;;5012118;28;20049;-43
2022/06/12 06:54:58;;;;;;;6.60;4.00;;;22.70;99.90;;;;;;5013794;28;20042;-43
2022/06/12 06:57:24;;;;;;;4.78;4.38;;;22.80;99.90;;;;;;4979286;28;20042;-43
2022/06/12 06:59:50;;;;;;;5.82;4.40;;;22.80;99.90;;;;;;5013344;28;20037;-43
2022/06/12 07:02:15;;;;;;;4.38;3.90;;;23.00;99.90;;;;;;5013426;28;20038;-44
2022/06/12 07:04:42;;;;;;;5.32;3.85;;;23.00;99.90;;;;;;4998806;28;20187;-44
2022/06/12 07:07:08;;;;;;;5.28;3.42;;;23.10;99.90;;;;;;5007371;28;20061;-44
2022/06/12 07:09:35;;;;;;;5.22;4.57;;;23.20;99.90;;;;;;4993154;28;20038;-43
2022/06/12 07:12:01;;;;;;;5.63;4.40;;;23.30;99.90;;;;;;5002161;28;20461;-43
2022/06/12 07:14:28;;;;;;;7.55;4.95;;;;;;;;;;5013525;28;20367;-43
2022/06/12 07:16:55;;;;;;;5.30;4.07;;;;;;;;;;5014344;28;20041;-43
2022/06/12 07:19:22;;;;;;;6.30;4.07;;;;;;;;;;5013597;28;20030;-44
2022/06/12 07:21:48;;;;;;;6.25;5.03;;;;;;;;;;5013694;28;20385;-43
2022/06/12 07:24:14;;;;;;;5.05;3.90;;;;;;;;;;5003033;28;20455;-43
2022/06/12 07:26:42;;;;;;;5.03;4.47;;;;;;;;;;4992406;28;20046;-43
2022/06/12 07:29:10;;;;;;;6.28;4.78;;;;;;;;;;5003162;28;20026;-43
2022/06/12 07:31:36;;;;;;;5.90;4.07;;;;;;;;;;5004070;28;20026;-43
2022/06/12 07:34:03;;;;;;;4.03;3.42;;;;;;;;;;4999259;28;20026;-44
2022/06/12 07:36:30;;;;;;;4.40;4.00;;;;;;;;;;4996952;28;20117;-43
2022/06/12 07:38:56;;;;;;;4.90;3.55;;;;;;;;;;5012270;28;20517;-43
2022/06/12 07:41:23;;;;;;;3.90;2.95;;;;;;;;;;4997602;28;20034;-43
2022/06/12 07:43:49;;;;;;;4.43;4.00;;;;;;;;;;4997586;28;20034;-43
2022/06/12 07:46:16;;;;;;;7.53;4.25;;;;;;;;;;4997801;28;20041;-43
2022/06/12 07:48:43;;;;;;;6.88;4.50;;;24.00;99.90;;;;;;4997436;28;20109;-43
2022/06/12 07:51:12;;;;;;;4.45;3.80;;;24.10;99.90;;;;;;4997517;28;20034;-43
2022/06/12 07:53:38;;;;;;;5.90;4.50;;;;;;;;;;4997662;28;20063;-43
2022/06/12 07:56:06;;;;;;;6.85;4.07;;;;;;;;;;4997832;28;20030;-43
2022/06/12 07:58:32;;;;;;;5.40;3.65;;;;;;;;;;4995556;28;20069;-43
2022/06/12 08:01:01;;;;;;;9.30;4.40;;;;;;;;;;4997435;28;20026;-44
2022/06/12 08:03:28;;;;;;;8.75;4.60;;;;;;;;;;4997146;28;20049;-43
2022/06/12 08:05:54;;;;;;;6.47;4.20;;;;;;;;;;4997453;28;20060;-43
2022/06/12 08:08:20;;;;;;;4.47;3.80;;;24.70;99.90;;;;;;4997469;28;20041;-44
2022/06/12 08:10:46;;;;;;;4.85;3.70;;;;;;;;;;5012073;28;20030;-43
2022/06/12 08:13:12;;;;;;;4.53;3.60;;;25.20;99.90;;;;;;4997548;28;20062;-43
2022/06/12 08:15:40;;;;;;;7.32;3.85;;;25.30;99.90;;;;;;4978933;28;20074;-43
2022/06/12 08:18:06;;;;;;;7.13;4.13;;;25.20;99.90;;;;;;5005904;28;20405;-43
2022/06/12 08:20:35;;;;;;;7.57;3.38;;;;;;;;;;4965898;28;20048;-43
2022/06/12 08:23:26;;;;;;;4.85;3.70;;;25.20;99.90;;;;;;5016761;28;20042;-43
2022/06/12 08:25:53;;;;;;;3.92;3.60;;;;;;;;;;5015715;28;20065;-43
2022/06/12 08:28:19;;;;;;;5.40;3.63;;;;;;;;;;5015011;28;20041;-44
2022/06/12 08:30:45;;;;;;;5.65;3.75;;;;;;;;;;5015578;28;20049;-43
2022/06/12 08:33:11;;;;;;;7.68;3.65;;;25.70;99.90;;;;;;5015314;28;20211;-43
2022/06/12 08:35:37;;;;;;;5.00;3.80;;;26.30;99.90;;;;;;4983588;28;20499;-43
2022/06/12 08:38:03;;;;;;;6.60;4.22;;;26.60;99.90;;;;;;4995565;28;20042;-43
2022/06/12 08:40:38;;;;;;;4.20;3.80;;;;;;;;;;4993794;28;20130;-43
2022/06/12 08:43:13;;;;;;;6.03;3.85;;;26.30;99.90;;;;;;4995412;28;20080;-44
2022/06/12 08:45:45;;;;;;;5.32;3.60;;;26.30;99.90;;;;;;4995017;28;20038;-44
2022/06/12 08:48:33;;;;;;;4.05;3.65;;;26.10;99.90;;;;;;4993183;28;20046;-43
2022/06/12 08:51:27;;;;;;;4.43;3.38;;;26.80;99.90;;;;;;4995338;28;20038;-43
2022/06/12 08:54:02;;;;;;;4.38;3.45;;;26.60;99.90;;;;;;4994076;28;20399;-44
2022/06/12 08:56:49;;;;;;;3.85;3.38;;;26.10;99.90;;;;;;4995166;28;20521;-44
2022/06/12 08:59:29;;;;;;;4.72;3.63;;;26.70;99.90;;;;;;4995134;28;20498;-43
2022/06/12 09:01:56;;;;;;;6.90;3.97;;;;;;;;;;4995092;28;20026;-43
2022/06/12 09:04:25;;;;;;;5.35;3.80;;;26.50;99.90;;;;;;4993067;28;20046;-44
2022/06/12 09:07:02;;;;;;;6.15;3.83;;;26.40;99.90;;;;;;4994804;28;20030;-43
2022/06/12 09:09:36;;;;;;;8.48;4.10;;;26.40;99.90;;;;;;4995002;28;20034;-44
2022/06/12 09:12:08;;;;;;;4.50;3.53;;;;;;;;;;4995163;28;20019;-43
2022/06/12 09:14:37;;;;;;;3.40;3.05;;;;;;;;;;4994960;28;20038;-43
2022/06/12 09:17:22;;;;;;;4.03;3.55;;;;;;;;;;4994919;28;20042;-43
2022/06/12 09:19:56;;;;;;;5.50;3.80;;;26.70;99.90;;;;;;4994361;28;20043;-43
2022/06/12 09:22:42;;;;;;;5.82;4.70;;;26.70;99.90;;;;;;4994789;28;20041;-43
2022/06/12 09:25:19;;;;;;;5.40;3.65;;;26.60;99.90;;;;;;4994450;28;20035;-43
2022/06/12 09:27:45;;;;;;;4.63;3.78;;;;;;;;;;4994711;28;20049;-43
2022/06/12 09:30:17;;;;;;;3.72;3.35;;;;;;;;;;4994720;28;20045;-43
2022/06/12 09:32:46;;;;;;;3.80;3.40;;;;;;;;;;4994145;28;20371;-43
2022/06/12 09:35:27;;;;;;;7.15;3.33;;;27.40;99.90;;;;;;4994510;28;20026;-43
2022/06/12 09:38:34;;;;;;;5.78;3.85;;;27.80;99.90;;;;;;4992377;28;20046;-43
2022/06/12 09:41:03;;;;;;;6.07;3.38;;;27.60;99.90;;;;;;4993090;28;20034;-43
2022/06/12 09:43:37;;;;;;;5.20;3.15;;;27.70;99.90;;;;;;4992101;28;20042;-43
2022/06/12 09:46:27;;;;;;;3.60;2.97;;;27.80;99.90;;;;;;4994197;28;20039;-43
2022/06/12 09:49:27;;;;;;;3.78;3.03;;;27.90;99.90;;;;;;4994222;28;20042;-43
2022/06/12 09:52:08;;;;;;;4.10;3.45;;;;;;;;;;4994128;28;20042;-43
2022/06/12 09:54:56;;;;;;;6.53;3.15;;;28.10;99.90;;;;;;4994170;28;20053;-43
2022/06/12 09:57:45;;;;;;;5.55;3.10;;;28.10;99.90;;;;;;4993347;28;20038;-43
2022/06/12 10:00:16;;;;;;;4.88;3.38;;;27.30;99.90;;;;;;4994113;28;20030;-43
2022/06/12 10:03:05;;;;;;;4.47;2.55;;;27.60;99.90;;;;;;4993800;28;20074;-43
2022/06/12 10:05:54;;;;;;;2.58;2.38;;;26.80;99.90;;;;;;4959300;28;20108;-43
2022/06/12 10:08:30;;;;;;;7.18;3.05;;;26.50;99.90;;;;;;4987836;28;20046;-43
2022/06/12 10:11:04;;;;;;;5.07;3.00;;;27.00;99.90;;;;;;4993574;28;20042;-43
2022/06/12 10:13:37;;;;;;;5.15;3.47;;;27.60;99.90;;;;;;4993759;28;20034;-44
2022/06/12 10:16:10;;;;;;;3.17;2.88;;;27.40;99.90;;;;;;4993874;28;20035;-44
2022/06/12 10:18:46;;;;;;;3.50;3.08;;;27.70;99.90;;;;;;4993825;28;20046;-44
2022/06/12 10:21:17;;;;;;;3.35;3.05;;;28.00;99.90;;;;;;4993640;28;20158;-44
2022/06/12 10:23:43;;;;;;;3.92;2.90;;;28.30;99.90;;;;;;4991204;28;20058;-43
2022/06/12 10:26:29;;;;;;;4.20;3.65;;;28.10;99.90;;;;;;4993701;28;20031;-44
2022/06/12 10:29:07;;;;;;;5.50;3.42;;;28.10;99.90;;;;;;4993687;28;20426;-43
2022/06/12 10:31:34;;;;;;;4.60;3.80;;;;;;;;;;4992290;28;20031;-43
2022/06/12 10:34:22;;;;;;;4.25;3.20;;;;;;;;;;4992762;28;20026;-44
2022/06/12 10:36:48;;;;;;;4.70;2.72;;;28.30;99.90;;;;;;4991889;28;20038;-44
2022/06/12 10:39:17;;;;;;;4.30;3.20;;;27.80;99.90;;;;;;4992744;28;20029;-43
2022/06/12 10:41:45;;;;;;;7.63;3.80;;;28.00;99.90;;;;;;4992641;28;20045;-43
2022/06/12 10:44:39;;;;;;;6.55;3.45;;;28.30;99.90;;;;;;4992536;28;20061;-44
2022/06/12 10:47:29;;;;;;;7.70;3.38;;;28.70;99.90;;;;;;4991752;28;20482;-43
2022/06/12 10:50:16;;;;;;;4.65;4.00;;;28.00;99.90;;;;;;4990066;28;20092;-44
2022/06/12 10:52:53;;;;;;;3.88;3.40;;;28.00;99.90;;;;;;4965212;28;20069;-44
2022/06/12 10:55:43;;;;;;;3.65;3.10;;;28.60;99.90;;;;;;4990989;28;20037;-43
2022/06/12 10:58:39;;;;;;;3.72;3.10;;;28.30;99.90;;;;;;4985852;28;20049;-44
2022/06/12 11:01:14;;;;;;;7.28;3.22;;;28.00;99.90;;;;;;4993039;28;20045;-43
2022/06/12 11:03:52;;;;;;;4.32;2.92;;;28.10;99.90;;;;;;4992719;28;20038;-44
2022/06/12 11:06:36;;;;;;;4.40;2.75;;;28.00;99.90;;;;;;4993125;28;20064;-44
2022/06/12 11:09:18;;;;;;;4.82;3.42;;;27.60;99.90;;;;;;4992849;28;20038;-43
2022/06/12 11:11:47;;;;;;;4.70;3.72;;;28.00;99.90;;;;;;4992831;28;20129;-44
2022/06/12 11:14:35;;;;;;;4.63;3.40;;;28.20;99.90;;;;;;4992934;28;20039;-44
2022/06/12 11:17:14;;;;;;;3.55;3.00;;;;;;;;;;4992573;28;20491;-43
2022/06/12 11:19:49;;;;;;;4.32;2.92;;;;;;;;;;4992995;28;20042;-43
2022/06/12 11:22:27;;;;;;;3.28;2.75;;;;;;;;;;4993848;28;20031;-43
2022/06/12 11:24:53;;;;;;;3.88;3.10;;;;;;;;;;4994479;28;20069;-44
2022/06/12 11:27:22;;;;;;;4.43;3.53;;;;;;;;;;5013416;28;20053;-44
2022/06/12 11:30:04;;;;;;;4.78;3.40;;;;;;;;;;4999432;28;20088;-44
2022/06/12 11:32:39;;;;;;;3.70;3.40;;;;;;;;;;4993738;28;20050;-43
2022/06/12 11:35:31;;;;;;;6.28;3.47;;;29.80;99.90;;;;;;4994070;28;20030;-44
2022/06/12 11:38:08;;;;;;;3.63;2.70;;;29.50;99.90;;;;;;4991485;28;20478;-43
2022/06/12 11:40:45;;;;;;;4.90;3.90;;;29.50;99.90;;;;;;4959852;28;20042;-44
2022/06/12 11:43:22;;;;;;;4.45;3.28;;;30.00;99.90;;;;;;4991982;28;20055;-44
2022/06/12 11:45:48;;;;;;;4.57;3.50;;;29.70;99.90;;;;;;4975470;28;20043;-44
2022/06/12 11:48:40;;;;;;;6.40;2.97;;;29.60;99.90;;;;;;4991723;28;20043;-44
2022/06/12 11:51:43;;;;;;;4.70;3.28;;;29.40;99.90;;;;;;4992310;28;20042;-44
2022/06/12 11:54:56;;;;;;;6.65;3.50;;;30.00;99.90;;;;;;4991459;28;20510;-44
2022/06/12 11:57:33;;;;;;;5.05;3.33;;;;;;;;;;4914701;29;20040;-44
2022/06/12 12:00:07;;;;;;;4.68;2.85;;;30.20;99.90;;;;;;4914871;29;20040;-44
2022/06/12 12:02:51;;;;;;;3.75;3.03;;;29.90;99.90;;;;;;4915309;29;20047;-43
2022/06/12 12:05:54;;;;;;;3.20;2.70;;;30.10;99.90;;;;;;4914862;29;20039;-44
2022/06/12 12:08:28;;;;;;;3.38;2.95;;;30.30;99.90;;;;;;4920237;29;20066;-44
2022/06/12 12:11:13;;;;;;;3.97;3.05;;;30.60;99.90;;;;;;4933659;29;20428;-44
2022/06/12 12:13:52;;;;;;;3.30;3.00;;;30.30;99.90;;;;;;4933678;29;20139;-44
2022/06/12 12:16:21;;;;;;;3.05;2.75;;;;;;;;;;4933681;29;20039;-44
2022/06/12 12:18:51;;;;;;;5.18;2.70;;;;;;;;;;4933481;29;20071;-44
2022/06/12 12:21:43;;;;;;;5.00;3.15;;;30.40;99.90;;;;;;4936035;29;20501;-44
2022/06/12 12:24:27;;;;;;;3.45;2.80;;;30.80;99.90;;;;;;4936722;29;20065;-44
2022/06/12 12:26:57;;;;;;;4.70;3.15;;;30.90;99.90;;;;;;4936798;29;20036;-44
2022/06/12 12:29:25;;;;;;;3.42;3.00;;;;;;;;;;4936802;29;20592;-44
2022/06/12 12:31:52;;;;;;;3.70;2.88;;;;;;;;;;4979084;28;20038;-44
2022/06/12 12:34:21;;;;;;;4.10;3.28;;;;;;;;;;4996492;28;20034;-44
2022/06/12 12:42:26;;;;;;;4.00;2.90;;;31.50;99.90;;;;;;4996853;28;20053;-44
2022/06/12 12:44:53;;;;;;;3.20;2.90;;;;;;;;;;4997099;28;20036;-45
2022/06/12 12:47:22;;;;;;;4.15;3.30;;;30.20;99.90;;;;;;4996516;28;20030;-45
2022/06/12 12:49:48;;;;;;;4.75;3.25;;;30.20;99.90;;;;;;4996844;28;20030;-44
2022/06/12 12:52:17;;;;;;;4.55;3.08;;;;;;;;;;4996289;28;20034;-44
2022/06/12 12:54:56;;;;;;;5.95;2.58;;;31.10;99.90;;;;;;4995675;28;20027;-44
2022/06/12 12:57:39;;;;;;;7.03;2.80;;;31.10;99.90;;;;;;4996705;28;20022;-45
2022/06/12 13:00:08;;;;;;;3.80;3.00;;;31.00;99.90;;;;;;4996551;28;20073;-44
2022/06/12 13:03:03;;;;;;;5.35;2.47;;;31.40;99.90;;;;;;4996232;28;20030;-44
2022/06/12 13:05:40;;;;;;;3.42;2.78;;;31.40;99.90;;;;;;4989935;28;20038;-45
2022/06/12 13:08:26;;;;;;;6.68;3.17;;;31.50;99.90;;;;;;4996449;28;20104;-44
2022/06/12 13:11:10;;;;;;;3.20;2.65;;;31.30;99.90;;;;;;4996025;28;20034;-44
2022/06/12 13:13:45;;;;;;;4.50;2.95;;;30.90;99.90;;;;;;4995969;28;20030;-44
2022/06/12 13:16:38;;;;;;;6.57;2.53;;;30.60;99.90;;;;;;5010325;28;20030;-44
2022/06/12 13:19:12;;;;;;;4.35;3.13;;;;;;;;;;4995939;28;20022;-44
2022/06/12 13:22:02;;;;;;;3.33;2.97;;;30.30;99.90;;;;;;4994678;28;20034;-43
2022/06/12 13:24:31;;;;;;;3.22;2.92;;;30.10;99.90;;;;;;4995632;28;20074;-44
2022/06/12 13:26:58;;;;;;;6.28;2.90;;;30.50;99.90;;;;;;4995651;28;20026;-44
2022/06/12 13:29:25;;;;;;;4.97;2.80;;;30.40;99.90;;;;;;4995706;28;20454;-44
2022/06/12 13:32:02;;;;;;;6.47;3.22;;;30.80;99.90;;;;;;4994340;28;20093;-44
2022/06/12 13:34:30;;;;;;;6.80;3.35;;;;;;;;;;4995649;28;20030;-44
2022/06/12 13:36:57;;;;;;;5.63;3.28;;;;;;;;;;4995505;28;20386;-44
2022/06/12 13:39:30;;;;;;;4.50;3.10;;;31.50;99.60;;;;;;4995329;28;20054;-44
2022/06/12 13:41:58;;;;;;;3.22;2.85;;;31.20;99.90;;;;;;4995474;28;20026;-44
2022/06/12 13:44:35;;;;;;;3.67;2.75;;;31.40;99.90;;;;;;4995140;28;20098;-44
2022/06/12 13:47:34;;;;;;;5.38;2.70;;;;;;;;;;4995169;28;20031;-45
2022/06/12 13:50:09;;;;;;;4.40;2.67;;;;;;;;;;4954217;29;20755;-44
2022/06/12 13:52:53;;;;;;;5.28;2.60;;;;;;;;;;4954355;29;20047;-44
2022/06/12 13:55:42;;;;;;;5.60;2.95;;;;;;;;;;4954290;29;20043;-44
2022/06/12 13:58:23;;;;;;;3.33;2.88;;;;;;;;;;4954221;29;20439;-44
2022/06/12 14:00:56;;;;;;;4.37;2.97;;;;;;;;;;4954245;29;20039;-44